Time;durP1;ratioP1;P1;durP2;ratioP2;P2;SDS_P1;SDS_P2;PMS_P1;PMS_P2;Temp;Humidity;BMP_temperature;BMP_pressure;BME280_temperature;BME280_humidity;BME280_pressure;Samples;Min_cycle;Max_cycle;Signal;HPM_P1;HPM_P2
2023/04/24 00:02:16;;;;;;;6.10;5.60;;;17.30;42.70;;;;;;5034197;28;20650;-48
2023/04/24 00:04:44;;;;;;;6.20;5.40;;;17.30;42.80;;;;;;5034282;28;20173;-49
2023/04/24 00:07:11;;;;;;;6.90;5.80;;;17.20;42.80;;;;;;5034293;28;20692;-49
2023/04/24 00:09:37;;;;;;;6.25;5.20;;;17.30;43.00;;;;;;5034220;28;20190;-49
2023/04/24 00:12:05;;;;;;;7.23;6.33;;;17.20;43.00;;;;;;5034348;28;20230;-49
2023/04/24 00:14:31;;;;;;;7.85;6.18;;;17.20;43.00;;;;;;5034335;28;20235;-49
2023/04/24 00:16:57;;;;;;;7.40;5.30;;;17.20;43.20;;;;;;5034142;28;20213;-49
2023/04/24 00:19:23;;;;;;;6.03;5.43;;;17.20;43.30;;;;;;5034204;28;20528;-49
2023/04/24 00:21:51;;;;;;;6.83;5.60;;;17.20;43.60;;;;;;5033885;28;20174;-49
2023/04/24 00:24:18;;;;;;;7.50;6.72;;;17.20;43.80;;;;;;5034114;28;20574;-49
2023/04/24 00:26:43;;;;;;;7.07;6.35;;;17.20;44.30;;;;;;5034162;28;20217;-49
2023/04/24 00:29:09;;;;;;;7.50;4.70;;;17.20;44.40;;;;;;5033834;28;20218;-49
2023/04/24 00:31:35;;;;;;;5.90;4.87;;;17.30;44.50;;;;;;5034105;28;20174;-50
2023/04/24 00:34:02;;;;;;;8.10;5.57;;;17.30;44.40;;;;;;5033595;28;20224;-49
2023/04/24 00:36:28;;;;;;;6.15;5.40;;;17.40;44.20;;;;;;5033888;28;20528;-49
2023/04/24 00:38:54;;;;;;;8.27;5.67;;;17.40;44.00;;;;;;5033645;28;20308;-50
2023/04/24 00:41:20;;;;;;;6.35;4.72;;;17.50;43.90;;;;;;5033683;28;20393;-49
2023/04/24 00:43:46;;;;;;;6.93;4.20;;;17.50;43.80;;;;;;5033411;28;20178;-50
2023/04/24 00:46:13;;;;;;;6.70;5.10;;;17.40;43.90;;;;;;5033529;28;20269;-49
2023/04/24 00:48:40;;;;;;;7.90;5.93;;;17.50;43.80;;;;;;5033367;28;20262;-49
2023/04/24 00:51:06;;;;;;;5.55;4.68;;;17.50;43.80;;;;;;5033441;28;20186;-49
2023/04/24 00:53:32;;;;;;;7.18;4.93;;;17.50;43.90;;;;;;5033264;28;20626;-49
2023/04/24 00:55:59;;;;;;;5.25;4.60;;;17.50;43.90;;;;;;5033322;28;20237;-49
2023/04/24 00:58:26;;;;;;;5.32;4.82;;;17.50;44.10;;;;;;5033586;28;20523;-49
2023/04/24 01:00:53;;;;;;;10.02;5.50;;;17.50;44.10;;;;;;5033288;28;20716;-49
2023/04/24 01:03:26;;;;;;;5.15;4.63;;;17.50;44.10;;;;;;5033002;28;20201;-49
2023/04/24 01:05:54;;;;;;;5.75;5.15;;;17.60;43.90;;;;;;5033148;28;20185;-49
2023/04/24 01:08:20;;;;;;;6.90;5.63;;;17.60;44.00;;;;;;5033364;28;20178;-49
2023/04/24 01:10:48;;;;;;;5.78;4.88;;;17.50;44.10;;;;;;5033295;28;20546;-49
2023/04/24 01:13:14;;;;;;;6.50;5.32;;;17.50;44.10;;;;;;5033118;28;20178;-49
2023/04/24 01:15:40;;;;;;;6.05;5.32;;;17.60;44.10;;;;;;5032870;28;20287;-50
2023/04/24 01:18:05;;;;;;;5.83;5.30;;;17.50;44.10;;;;;;5033069;28;20205;-49
2023/04/24 01:20:33;;;;;;;6.50;4.53;;;17.60;43.80;;;;;;5032839;28;20197;-50
2023/04/24 01:22:58;;;;;;;6.50;4.22;;;17.50;43.80;;;;;;5032677;28;20180;-49
2023/04/24 01:25:27;;;;;;;6.30;4.70;;;17.50;44.00;;;;;;5032857;28;20245;-49
2023/04/24 01:27:53;;;;;;;7.25;5.63;;;17.40;43.90;;;;;;5032891;28;20569;-49
2023/04/24 01:30:18;;;;;;;4.90;4.50;;;17.50;44.00;;;;;;5032988;28;20209;-50
2023/04/24 01:32:45;;;;;;;6.90;5.93;;;17.40;44.00;;;;;;5032402;28;20676;-50
2023/04/24 01:35:11;;;;;;;6.75;5.07;;;17.40;44.30;;;;;;5032642;28;20188;-49
2023/04/24 01:37:37;;;;;;;7.20;5.07;;;17.30;44.50;;;;;;5032811;28;20213;-49
2023/04/24 01:40:04;;;;;;;7.37;5.13;;;17.20;44.60;;;;;;5032448;28;20991;-49
2023/04/24 01:42:30;;;;;;;7.10;5.72;;;17.20;44.70;;;;;;5032058;28;20442;-49
2023/04/24 01:44:57;;;;;;;6.70;5.00;;;17.20;45.00;;;;;;5032906;28;20186;-49
2023/04/24 01:47:24;;;;;;;6.60;5.53;;;17.10;45.60;;;;;;5032449;28;20482;-49
2023/04/24 01:49:50;;;;;;;6.72;6.07;;;17.10;46.20;;;;;;5032400;28;20332;-49
2023/04/24 01:52:17;;;;;;;5.93;5.32;;;17.20;45.60;;;;;;5032469;28;20182;-49
2023/04/24 01:54:43;;;;;;;5.85;4.60;;;17.20;45.60;;;;;;5032313;28;20190;-49
2023/04/24 01:57:09;;;;;;;8.10;5.70;;;17.30;45.50;;;;;;5032199;28;20297;-49
2023/04/24 01:59:36;;;;;;;6.05;5.30;;;17.30;45.60;;;;;;5032582;28;20198;-50
2023/04/24 02:02:02;;;;;;;7.15;5.35;;;17.30;45.40;;;;;;5031898;28;20228;-49
2023/04/24 02:04:28;;;;;;;7.20;6.20;;;17.30;45.60;;;;;;5032237;28;20205;-50
2023/04/24 02:06:54;;;;;;;6.40;5.80;;;17.30;45.50;;;;;;5032358;28;20193;-50
2023/04/24 02:09:20;;;;;;;6.83;5.50;;;17.40;45.40;;;;;;5032068;28;20515;-49
2023/04/24 02:11:46;;;;;;;7.50;5.77;;;17.40;45.30;;;;;;5032199;28;20409;-49
2023/04/24 02:14:12;;;;;;;5.23;4.73;;;17.40;45.30;;;;;;5032069;28;20601;-50
2023/04/24 02:16:38;;;;;;;6.37;5.30;;;17.40;45.20;;;;;;5031744;28;20445;-50
2023/04/24 02:19:04;;;;;;;5.80;4.80;;;17.50;45.00;;;;;;5032163;28;20424;-49
2023/04/24 02:21:30;;;;;;;8.60;5.80;;;17.50;45.00;;;;;;5031978;28;20714;-50
2023/04/24 02:23:57;;;;;;;7.57;5.22;;;17.50;44.90;;;;;;5031873;28;20405;-50
2023/04/24 02:26:23;;;;;;;6.03;5.45;;;17.50;45.00;;;;;;5031956;28;20178;-49
2023/04/24 02:28:48;;;;;;;7.37;5.20;;;17.50;45.00;;;;;;5032124;28;20190;-50
2023/04/24 02:31:15;;;;;;;5.30;4.70;;;17.50;45.10;;;;;;5031850;28;20205;-50
2023/04/24 02:33:40;;;;;;;7.82;6.55;;;17.50;45.80;;;;;;5031877;28;20220;-50
2023/04/24 02:36:06;;;;;;;8.40;6.50;;;17.40;45.30;;;;;;5031897;28;20574;-49
2023/04/24 02:38:32;;;;;;;8.23;7.07;;;17.30;45.30;;;;;;5032016;28;20703;-49
2023/04/24 02:40:58;;;;;;;7.60;6.90;;;17.40;45.50;;;;;;5031845;28;20400;-49
2023/04/24 02:43:24;;;;;;;11.03;5.60;;;17.40;45.40;;;;;;5031882;28;20401;-50
2023/04/24 02:45:49;;;;;;;7.23;5.40;;;17.40;45.10;;;;;;5032005;28;20181;-49
2023/04/24 02:48:15;;;;;;;6.57;5.87;;;17.40;45.20;;;;;;5031780;28;20217;-49
2023/04/24 02:50:41;;;;;;;17.07;5.43;;;17.40;45.20;;;;;;5031934;28;20239;-50
2023/04/24 02:53:07;;;;;;;7.73;6.47;;;17.40;45.30;;;;;;5033147;28;20181;-50
2023/04/24 02:55:34;;;;;;;6.88;6.18;;;17.30;45.50;;;;;;5035550;28;20210;-49
2023/04/24 02:58:00;;;;;;;7.97;6.47;;;17.30;45.60;;;;;;5035718;28;20198;-49
2023/04/24 03:00:25;;;;;;;9.97;5.87;;;17.30;45.70;;;;;;5035396;28;20469;-49
2023/04/24 03:02:51;;;;;;;6.63;5.23;;;17.30;45.70;;;;;;5035358;28;20404;-49
2023/04/24 03:05:17;;;;;;;6.67;5.10;;;17.30;45.60;;;;;;5035675;28;20177;-49
2023/04/24 03:07:43;;;;;;;7.07;5.97;;;17.30;45.70;;;;;;5035328;28;20181;-48
2023/04/24 03:10:09;;;;;;;6.93;5.70;;;17.30;45.60;;;;;;5035371;28;20189;-50
2023/04/24 03:12:34;;;;;;;7.45;5.05;;;17.30;45.80;;;;;;5035381;28;20256;-50
2023/04/24 03:15:00;;;;;;;6.60;5.20;;;17.30;45.60;;;;;;5035469;28;20581;-49
2023/04/24 03:17:26;;;;;;;8.80;6.83;;;17.30;45.60;;;;;;5035196;28;20268;-49
2023/04/24 03:19:52;;;;;;;8.80;6.27;;;17.30;45.60;;;;;;5035102;28;20697;-49
2023/04/24 03:22:17;;;;;;;6.37;5.77;;;17.30;45.50;;;;;;5035069;28;20253;-50
2023/04/24 03:24:43;;;;;;;5.63;5.07;;;17.30;45.50;;;;;;5035393;28;20549;-49
2023/04/24 03:27:09;;;;;;;7.07;5.80;;;17.30;45.50;;;;;;5034958;28;20667;-49
2023/04/24 03:29:34;;;;;;;5.50;4.47;;;17.30;45.60;;;;;;5034986;28;20190;-48
2023/04/24 03:32:00;;;;;;;7.87;5.37;;;17.30;45.40;;;;;;5034855;28;20181;-49
2023/04/24 03:34:26;;;;;;;7.43;4.23;;;17.30;45.30;;;;;;5035058;28;20193;-49
2023/04/24 03:36:52;;;;;;;5.03;3.90;;;17.40;45.20;;;;;;5034787;28;20561;-49
2023/04/24 03:39:18;;;;;;;6.10;3.78;;;17.40;45.10;;;;;;5034782;28;20696;-49
2023/04/24 03:41:44;;;;;;;6.73;4.20;;;17.40;44.90;;;;;;5034917;28;20178;-49
2023/04/24 03:44:09;;;;;;;5.20;4.57;;;17.40;45.00;;;;;;5034484;28;20466;-49
2023/04/24 03:46:35;;;;;;;5.40;4.60;;;17.40;44.80;;;;;;5034759;28;20174;-48
2023/04/24 03:49:01;;;;;;;6.30;4.63;;;17.40;44.90;;;;;;5034575;28;20214;-49
2023/04/24 03:51:27;;;;;;;4.73;3.57;;;17.40;45.00;;;;;;5034589;28;20554;-48
2023/04/24 03:53:53;;;;;;;7.60;4.03;;;17.40;44.70;;;;;;5034495;28;20240;-49
2023/04/24 03:56:20;;;;;;;6.40;4.57;;;17.30;44.90;;;;;;5034340;28;20676;-49
2023/04/24 03:58:46;;;;;;;5.57;4.93;;;17.40;45.00;;;;;;5034591;28;20467;-50
2023/04/24 04:01:11;;;;;;;6.00;4.80;;;17.40;44.90;;;;;;5034466;28;20802;-49
2023/04/24 04:03:37;;;;;;;15.10;5.47;;;17.40;44.90;;;;;;5034104;28;20201;-49
2023/04/24 04:06:03;;;;;;;6.53;5.60;;;17.40;44.90;;;;;;5034332;28;20415;-49
2023/04/24 04:08:29;;;;;;;8.90;4.93;;;17.40;45.00;;;;;;5034280;28;20178;-50
2023/04/24 04:10:55;;;;;;;3.40;3.10;;;17.40;44.80;;;;;;5034262;28;20438;-50
2023/04/24 04:13:20;;;;;;;5.63;5.03;;;17.40;45.00;;;;;;5033839;28;20174;-50
2023/04/24 04:15:46;;;;;;;7.07;4.97;;;17.40;45.60;;;;;;5034232;28;20448;-50
2023/04/24 04:18:12;;;;;;;3.80;3.50;;;17.40;44.90;;;;;;5034057;28;20642;-49
2023/04/24 04:20:37;;;;;;;7.40;5.20;;;17.40;45.00;;;;;;5034117;28;20190;-49
2023/04/24 04:23:03;;;;;;;5.60;5.07;;;17.40;44.90;;;;;;5033778;28;20717;-50
2023/04/24 04:25:29;;;;;;;7.23;4.50;;;17.40;44.90;;;;;;5033900;28;20265;-50
2023/04/24 04:27:55;;;;;;;6.40;4.20;;;17.40;45.00;;;;;;5034073;28;20201;-50
2023/04/24 04:30:21;;;;;;;4.47;4.00;;;17.40;44.90;;;;;;5034069;28;20220;-49
2023/04/24 04:32:47;;;;;;;5.22;3.30;;;17.40;44.80;;;;;;5033624;28;20400;-50
2023/04/24 04:35:13;;;;;;;4.50;3.17;;;17.40;44.60;;;;;;5033740;28;20177;-48
2023/04/24 04:37:39;;;;;;;5.50;2.73;;;17.40;44.50;;;;;;5033920;28;20240;-50
2023/04/24 04:40:06;;;;;;;5.13;2.55;;;17.40;44.30;;;;;;5033534;28;20937;-49
2023/04/24 04:42:33;;;;;;;2.90;2.50;;;17.50;44.20;;;;;;5015664;28;20174;-49
2023/04/24 04:45:00;;;;;;;5.88;2.53;;;17.50;44.00;;;;;;5033601;28;20174;-50
2023/04/24 04:47:28;;;;;;;3.33;2.38;;;17.50;44.00;;;;;;5033621;28;20196;-49
2023/04/24 04:49:54;;;;;;;3.70;2.60;;;17.50;43.60;;;;;;5033739;28;20280;-49
2023/04/24 04:52:20;;;;;;;3.00;2.05;;;17.60;43.60;;;;;;5033325;28;20607;-49
2023/04/24 04:54:46;;;;;;;7.17;2.83;;;17.60;43.00;;;;;;5033350;28;20268;-50
2023/04/24 04:57:12;;;;;;;5.90;1.80;;;17.70;43.00;;;;;;5033512;28;20452;-53
2023/04/24 04:59:38;;;;;;;2.85;2.03;;;17.70;43.00;;;;;;5033389;28;20448;-50
2023/04/24 05:02:03;;;;;;;3.07;2.37;;;17.80;42.80;;;;;;5033171;28;20272;-51
2023/04/24 05:04:30;;;;;;;4.90;2.77;;;17.80;42.70;;;;;;5015538;28;20419;-53
2023/04/24 05:06:56;;;;;;;2.67;2.22;;;17.80;42.60;;;;;;5033216;28;20193;-50
2023/04/24 05:09:21;;;;;;;4.20;2.53;;;17.90;43.00;;;;;;5033062;28;20284;-52
2023/04/24 05:11:47;;;;;;;4.60;3.33;;;17.90;43.20;;;;;;5032936;28;20409;-50
2023/04/24 05:14:13;;;;;;;9.83;2.77;;;18.00;43.10;;;;;;5033151;28;20196;-50
2023/04/24 05:16:40;;;;;;;3.90;2.67;;;18.00;43.10;;;;;;5032290;28;20201;-49
2023/04/24 05:19:06;;;;;;;4.40;3.10;;;18.00;43.10;;;;;;5032943;28;20499;-52
2023/04/24 05:21:31;;;;;;;4.00;2.70;;;18.10;43.30;;;;;;5032987;28;20253;-49
2023/04/24 05:23:57;;;;;;;3.33;2.30;;;18.10;43.40;;;;;;5032649;28;20409;-52
2023/04/24 05:26:23;;;;;;;3.60;2.90;;;18.20;43.30;;;;;;5032783;28;20170;-49
2023/04/24 05:28:49;;;;;;;6.73;2.90;;;18.20;43.40;;;;;;5032685;28;20244;-50
2023/04/24 05:31:17;;;;;;;3.78;2.97;;;18.30;43.20;;;;;;5032655;28;20181;-52
2023/04/24 05:33:43;;;;;;;3.85;2.65;;;18.30;42.90;;;;;;5032727;28;20185;-52
2023/04/24 05:36:08;;;;;;;6.03;3.13;;;18.30;42.60;;;;;;5032628;28;20215;-50
2023/04/24 05:38:34;;;;;;;5.90;2.33;;;18.40;42.60;;;;;;5032647;28;20228;-52
2023/04/24 05:41:00;;;;;;;3.47;2.73;;;18.40;42.20;;;;;;5032878;28;20686;-50
2023/04/24 05:43:26;;;;;;;4.77;2.20;;;18.50;42.40;;;;;;5032285;28;20647;-49
2023/04/24 05:45:53;;;;;;;2.53;1.97;;;18.50;42.10;;;;;;5032619;28;20182;-51
2023/04/24 05:48:19;;;;;;;4.85;1.92;;;18.60;42.10;;;;;;5032515;28;20436;-51
2023/04/24 05:50:45;;;;;;;8.75;2.00;;;18.60;41.80;;;;;;5032644;28;20182;-51
2023/04/24 05:53:10;;;;;;;2.43;1.50;;;18.70;41.50;;;;;;5032387;28;20581;-51
2023/04/24 05:55:37;;;;;;;2.80;1.77;;;18.80;41.50;;;;;;5032376;28;20491;-51
2023/04/24 05:58:02;;;;;;;3.83;2.53;;;18.90;41.50;;;;;;5032474;28;20210;-51
2023/04/24 06:00:29;;;;;;;3.10;1.70;;;19.00;40.90;;;;;;5032421;28;20230;-51
2023/04/24 06:02:55;;;;;;;4.93;1.95;;;19.00;40.10;;;;;;5032007;28;20198;-51
2023/04/24 06:05:20;;;;;;;3.58;1.85;;;19.00;39.30;;;;;;5032106;28;20220;-51
2023/04/24 06:07:47;;;;;;;4.40;2.67;;;19.00;39.30;;;;;;5032313;28;20197;-51
2023/04/24 06:10:12;;;;;;;2.55;1.50;;;19.00;39.20;;;;;;5032094;28;20224;-51
2023/04/24 06:12:38;;;;;;;3.37;1.67;;;19.10;39.00;;;;;;5031836;28;20182;-51
2023/04/24 06:15:04;;;;;;;3.10;1.60;;;19.10;38.90;;;;;;5032266;28;20231;-51
2023/04/24 06:17:32;;;;;;;3.45;1.63;;;19.10;39.00;;;;;;5032065;28;20682;-52
2023/04/24 06:19:57;;;;;;;2.55;1.20;;;19.30;39.10;;;;;;5032013;28;20190;-51
2023/04/24 06:22:23;;;;;;;3.30;1.50;;;19.30;38.80;;;;;;5031778;28;20164;-51
2023/04/24 06:24:49;;;;;;;3.07;1.50;;;19.40;38.20;;;;;;5031879;28;20534;-51
2023/04/24 06:27:14;;;;;;;6.83;1.80;;;19.50;38.20;;;;;;5031888;28;20174;-51
2023/04/24 06:29:40;;;;;;;3.97;1.70;;;19.60;38.20;;;;;;5031956;28;20190;-51
2023/04/24 06:32:06;;;;;;;3.00;1.40;;;19.60;37.90;;;;;;5031765;28;20620;-51
2023/04/24 06:34:33;;;;;;;3.47;1.60;;;19.60;37.40;;;;;;5031933;28;20707;-51
2023/04/24 06:36:59;;;;;;;1.60;1.15;;;19.70;37.50;;;;;;5031622;28;20601;-51
2023/04/24 06:39:25;;;;;;;3.80;1.88;;;19.80;37.90;;;;;;5031768;28;20248;-51
2023/04/24 06:41:51;;;;;;;6.80;1.30;;;19.90;37.80;;;;;;5031477;28;20174;-51
2023/04/24 06:44:17;;;;;;;7.63;2.80;;;19.90;37.00;;;;;;5031867;28;20181;-51
2023/04/24 06:46:42;;;;;;;2.93;2.10;;;19.90;37.00;;;;;;5031973;28;20178;-51
2023/04/24 06:49:08;;;;;;;2.07;1.30;;;19.90;36.50;;;;;;5031616;28;20221;-51
2023/04/24 06:51:34;;;;;;;2.30;1.33;;;19.90;37.30;;;;;;5031720;28;20300;-51
2023/04/24 06:54:00;;;;;;;2.57;1.60;;;20.00;37.30;;;;;;5031756;28;20181;-52
2023/04/24 06:56:26;;;;;;;2.53;1.10;;;20.20;37.30;;;;;;5031826;28;20665;-51
2023/04/24 06:58:53;;;;;;;3.40;1.50;;;20.20;36.70;;;;;;5031778;28;20190;-51
2023/04/24 07:01:18;;;;;;;2.28;1.50;;;20.40;36.40;;;;;;5031978;28;20185;-51
2023/04/24 07:03:44;;;;;;;1.70;1.33;;;20.30;35.70;;;;;;5031698;28;20253;-51
2023/04/24 07:06:13;;;;;;;1.80;1.43;;;20.20;35.80;;;;;;5031480;28;20706;-51
2023/04/24 07:08:39;;;;;;;3.00;1.70;;;20.20;36.00;;;;;;5031521;28;20436;-51
2023/04/24 07:11:05;;;;;;;3.30;1.40;;;20.30;35.60;;;;;;5031506;28;20185;-51
2023/04/24 07:13:31;;;;;;;3.40;1.58;;;20.40;36.10;;;;;;5031268;28;20605;-51
2023/04/24 07:15:57;;;;;;;2.93;1.30;;;20.50;35.20;;;;;;5031664;28;20210;-51
2023/04/24 07:18:23;;;;;;;3.47;1.10;;;20.70;36.00;;;;;;5031401;28;20200;-52
2023/04/24 07:20:50;;;;;;;2.05;1.20;;;20.90;35.20;;;;;;5031525;28;20174;-51
2023/04/24 07:23:16;;;;;;;3.15;1.15;;;21.00;34.50;;;;;;5031466;28;20178;-51
2023/04/24 07:25:42;;;;;;;1.58;0.70;;;21.10;34.50;;;;;;5031473;28;20181;-52
2023/04/24 07:28:08;;;;;;;2.83;1.13;;;21.00;34.00;;;;;;5031517;28;20550;-51
2023/04/24 07:30:34;;;;;;;4.70;1.33;;;21.00;34.60;;;;;;5031318;28;20713;-51
2023/04/24 07:33:00;;;;;;;2.93;1.30;;;21.00;34.30;;;;;;5031235;28;20165;-51
2023/04/24 07:35:26;;;;;;;1.83;1.07;;;21.00;34.00;;;;;;5031244;28;20400;-51
2023/04/24 07:37:55;;;;;;;2.20;1.20;;;20.90;34.00;;;;;;5031488;28;20832;-52
2023/04/24 07:40:22;;;;;;;2.20;1.00;;;20.90;33.80;;;;;;5034197;28;20431;-51
2023/04/24 07:42:50;;;;;;;2.28;1.05;;;20.70;34.20;;;;;;5034666;28;20179;-51
2023/04/24 07:45:16;;;;;;;4.43;1.55;;;20.60;34.50;;;;;;5034751;28;20209;-51
2023/04/24 07:47:43;;;;;;;2.63;1.30;;;20.60;34.30;;;;;;5034398;28;20225;-51
2023/04/24 07:50:10;;;;;;;2.25;1.23;;;20.70;34.70;;;;;;5034593;28;20825;-51
2023/04/24 07:52:36;;;;;;;1.95;0.80;;;20.60;34.30;;;;;;5034428;28;20182;-51
2023/04/24 07:55:03;;;;;;;3.38;1.17;;;20.60;33.90;;;;;;5034528;28;20178;-51
2023/04/24 07:57:28;;;;;;;1.83;1.53;;;20.50;35.00;;;;;;5034521;28;20202;-52
2023/04/24 07:59:55;;;;;;;2.07;1.50;;;20.50;35.00;;;;;;5034509;28;20515;-52
2023/04/24 08:02:25;;;;;;;5.38;1.45;;;20.60;34.30;;;;;;5034522;28;20205;-51
2023/04/24 08:04:55;;;;;;;2.00;1.25;;;20.70;34.60;;;;;;5034729;28;20300;-52
2023/04/24 08:07:21;;;;;;;3.37;1.07;;;20.80;34.20;;;;;;5034299;28;20520;-52
2023/04/24 08:09:46;;;;;;;2.23;1.30;;;20.80;34.20;;;;;;5034491;28;20451;-51
2023/04/24 08:12:12;;;;;;;4.80;1.47;;;20.90;34.80;;;;;;5034153;28;20401;-50
2023/04/24 08:14:38;;;;;;;2.47;1.07;;;21.00;34.50;;;;;;5034170;28;20757;-51
2023/04/24 08:17:04;;;;;;;2.83;1.00;;;21.10;34.20;;;;;;5033990;28;20554;-51
2023/04/24 08:19:30;;;;;;;1.70;1.20;;;21.30;34.30;;;;;;5034298;28;20192;-51
2023/04/24 08:21:55;;;;;;;1.70;0.83;;;21.40;32.90;;;;;;5033911;28;20678;-51
2023/04/24 08:24:22;;;;;;;1.60;1.10;;;21.30;32.20;;;;;;5033978;28;20439;-51
2023/04/24 08:26:52;;;;;;;1.40;1.10;;;21.20;33.00;;;;;;5033920;28;20232;-51
2023/04/24 08:29:17;;;;;;;3.10;1.17;;;21.10;32.30;;;;;;5034056;28;20433;-50
2023/04/24 08:31:43;;;;;;;1.70;1.10;;;21.10;32.90;;;;;;5034023;28;21063;-51
2023/04/24 08:34:10;;;;;;;2.03;1.17;;;21.10;33.30;;;;;;5033805;28;20515;-51
2023/04/24 08:36:36;;;;;;;7.03;1.47;;;21.10;32.60;;;;;;5033839;28;20190;-51
2023/04/24 08:39:02;;;;;;;1.95;1.33;;;20.90;33.10;;;;;;5033940;28;20424;-51
2023/04/24 08:41:28;;;;;;;2.90;1.03;;;20.80;32.80;;;;;;5033652;28;20634;-51
2023/04/24 08:43:57;;;;;;;1.50;1.20;;;20.80;33.60;;;;;;5033547;28;20534;-51
2023/04/24 08:46:25;;;;;;;2.75;1.38;;;20.70;33.60;;;;;;5033853;28;20401;-51
2023/04/24 08:48:52;;;;;;;1.80;1.10;;;20.80;33.80;;;;;;5033483;28;20225;-51
2023/04/24 08:51:18;;;;;;;2.43;1.03;;;20.80;33.40;;;;;;5032634;28;20415;-50
2023/04/24 08:53:46;;;;;;;4.43;1.27;;;20.90;32.30;;;;;;5033505;28;20413;-51
2023/04/24 08:56:12;;;;;;;5.47;1.20;;;20.80;32.40;;;;;;5033374;28;20452;-50
2023/04/24 08:58:39;;;;;;;2.07;1.00;;;20.80;33.10;;;;;;5033514;28;20460;-51
2023/04/24 09:01:05;;;;;;;3.63;1.10;;;20.90;32.90;;;;;;5033401;28;20409;-51
2023/04/24 09:03:32;;;;;;;5.13;2.80;;;21.00;32.80;;;;;;5033239;28;20257;-50
2023/04/24 09:05:59;;;;;;;3.33;0.83;;;20.90;31.40;;;;;;5033404;28;20404;-50
2023/04/24 09:08:27;;;;;;;8.97;1.37;;;20.90;30.60;;;;;;5033230;28;20499;-51
2023/04/24 09:10:53;;;;;;;2.90;1.00;;;20.90;31.00;;;;;;5033464;28;20816;-51
2023/04/24 09:13:20;;;;;;;1.67;1.10;;;21.00;31.20;;;;;;5032840;28;20412;-51
2023/04/24 09:15:46;;;;;;;1.80;1.20;;;21.10;30.40;;;;;;5033203;28;20421;-51
2023/04/24 09:18:11;;;;;;;1.90;0.90;;;21.20;30.40;;;;;;5033058;28;20512;-51
2023/04/24 09:21:00;;;;;;;1.77;1.27;;;21.20;30.30;;;;;;5032901;28;20197;-51
2023/04/24 09:23:35;;;;;;;3.77;1.67;;;21.30;31.00;;;;;;5032876;28;20166;-51
2023/04/24 09:26:04;;;;;;;3.92;1.08;;;21.40;31.60;;;;;;5033214;28;20446;-51
2023/04/24 09:28:36;;;;;;;5.10;1.47;;;21.50;30.80;;;;;;5032961;28;20182;-52
2023/04/24 09:31:11;;;;;;;1.65;0.95;;;21.50;30.70;;;;;;5032766;28;20420;-51
2023/04/24 09:33:37;;;;;;;2.80;1.00;;;21.40;30.10;;;;;;5032527;28;20183;-51
2023/04/24 09:36:04;;;;;;;3.40;1.57;;;21.40;31.40;;;;;;5032439;28;20452;-51
2023/04/24 09:38:33;;;;;;;2.37;1.40;;;21.30;30.70;;;;;;5032563;28;20170;-51
2023/04/24 09:41:04;;;;;;;2.23;1.40;;;21.30;31.10;;;;;;5032788;28;20411;-51
2023/04/24 09:43:31;;;;;;;2.83;1.00;;;21.30;30.50;;;;;;5032627;28;20438;-51
2023/04/24 09:45:58;;;;;;;2.00;1.10;;;21.40;30.50;;;;;;5032564;28;20500;-51
2023/04/24 09:48:31;;;;;;;1.70;1.03;;;21.30;31.80;;;;;;5032246;28;20980;-52
2023/04/24 09:50:57;;;;;;;5.63;1.23;;;21.30;31.20;;;;;;5032661;28;20412;-51
2023/04/24 09:53:27;;;;;;;1.70;0.90;;;21.30;30.90;;;;;;5032338;28;20777;-51
2023/04/24 09:55:53;;;;;;;1.67;1.07;;;21.30;30.30;;;;;;5032267;28;20409;-51
2023/04/24 09:58:26;;;;;;;2.40;1.17;;;21.20;30.60;;;;;;5032581;28;20427;-51
2023/04/24 10:00:54;;;;;;;4.20;1.43;;;21.20;30.40;;;;;;5032323;28;20642;-51
2023/04/24 10:03:20;;;;;;;2.23;1.10;;;21.10;30.80;;;;;;5031591;28;20901;-51
2023/04/24 10:05:46;;;;;;;1.30;0.80;;;21.20;30.80;;;;;;5032109;28;20506;-52
2023/04/24 10:08:13;;;;;;;5.33;1.17;;;21.20;30.90;;;;;;5032182;28;20420;-51
2023/04/24 10:10:47;;;;;;;2.38;1.13;;;21.40;31.50;;;;;;5032315;28;20436;-51
2023/04/24 10:13:14;;;;;;;2.78;0.73;;;21.50;30.60;;;;;;5032004;28;20181;-51
2023/04/24 10:15:41;;;;;;;3.10;1.10;;;21.50;30.30;;;;;;5032222;28;20178;-52
2023/04/24 10:18:09;;;;;;;4.35;1.40;;;21.60;30.70;;;;;;5031986;28;20268;-51
2023/04/24 10:20:36;;;;;;;2.47;1.20;;;21.50;30.90;;;;;;5032271;28;20363;-52
2023/04/24 10:23:03;;;;;;;1.80;1.13;;;21.40;30.00;;;;;;5032039;28;20519;-51
2023/04/24 10:25:31;;;;;;;2.05;0.98;;;21.50;30.10;;;;;;5032025;28;20661;-52
2023/04/24 10:27:59;;;;;;;4.43;0.90;;;21.50;29.70;;;;;;5031915;28;20924;-51
2023/04/24 10:30:27;;;;;;;2.67;1.10;;;21.60;29.10;;;;;;5032020;28;20207;-52
2023/04/24 10:32:53;;;;;;;2.92;0.95;;;21.60;29.40;;;;;;5031998;28;20201;-51
2023/04/24 10:35:22;;;;;;;3.30;1.90;;;21.70;29.60;;;;;;5032105;28;20571;-51
2023/04/24 10:37:55;;;;;;;1.73;0.90;;;21.80;30.70;;;;;;5031893;28;20514;-52
2023/04/24 10:40:39;;;;;;;2.08;1.08;;;22.20;30.20;;;;;;5031849;28;20194;-51
2023/04/24 10:43:11;;;;;;;2.43;0.97;;;22.60;29.90;;;;;;5031874;28;20585;-51
2023/04/24 10:45:38;;;;;;;2.50;0.80;;;22.80;28.70;;;;;;5031822;28;20925;-51
2023/04/24 10:48:10;;;;;;;1.83;0.83;;;23.00;28.90;;;;;;5031589;28;20951;-51
2023/04/24 10:51:02;;;;;;;2.47;0.90;;;22.90;27.40;;;;;;5031883;28;21003;-51
2023/04/24 10:53:29;;;;;;;1.87;0.90;;;22.60;27.60;;;;;;5026958;28;20178;-51
2023/04/24 10:56:04;;;;;;;1.93;1.13;;;22.50;27.00;;;;;;5031758;28;20503;-51
2023/04/24 10:58:46;;;;;;;2.17;1.23;;;22.50;28.50;;;;;;5031911;28;20396;-51
2023/04/24 11:01:26;;;;;;;2.78;0.82;;;22.40;27.50;;;;;;5031779;28;20885;-51
2023/04/24 11:03:59;;;;;;;3.07;1.07;;;22.30;28.80;;;;;;5031390;28;20182;-51
2023/04/24 11:06:35;;;;;;;2.60;1.37;;;22.30;28.90;;;;;;5031761;28;20538;-52
2023/04/24 11:09:08;;;;;;;3.37;1.17;;;22.30;28.60;;;;;;5031471;28;20432;-52
2023/04/24 11:11:36;;;;;;;3.03;1.40;;;22.20;28.80;;;;;;5031598;28;20435;-52
2023/04/24 11:14:05;;;;;;;1.13;0.55;;;22.10;29.20;;;;;;5032695;28;20404;-51
2023/04/24 11:16:34;;;;;;;1.53;0.90;;;22.10;29.30;;;;;;5035161;28;20289;-51
2023/04/24 11:19:09;;;;;;;1.75;1.05;;;21.90;29.60;;;;;;5035492;28;20483;-51
2023/04/24 11:21:55;;;;;;;1.45;0.82;;;21.80;29.60;;;;;;5035338;28;20213;-51
2023/04/24 11:24:47;;;;;;;1.83;0.93;;;21.60;30.60;;;;;;5035239;28;20185;-51
2023/04/24 11:27:21;;;;;;;2.95;1.10;;;21.60;30.30;;;;;;5021753;28;20186;-52
2023/04/24 11:29:49;;;;;;;2.47;1.25;;;21.50;30.40;;;;;;5035011;28;20694;-51
2023/04/24 11:32:20;;;;;;;2.95;1.13;;;21.50;30.80;;;;;;5034951;28;20597;-51
2023/04/24 11:34:47;;;;;;;2.10;1.30;;;21.50;30.80;;;;;;5034861;28;20642;-52
2023/04/24 11:37:13;;;;;;;1.73;0.90;;;21.70;30.60;;;;;;5035160;28;20213;-52
2023/04/24 11:39:40;;;;;;;1.67;1.08;;;21.80;30.40;;;;;;5035209;28;20208;-51
2023/04/24 11:42:07;;;;;;;1.50;1.03;;;21.90;31.00;;;;;;5034687;28;20631;-51
2023/04/24 11:44:34;;;;;;;4.53;1.10;;;22.10;30.60;;;;;;5034751;28;20432;-51
2023/04/24 11:47:00;;;;;;;1.30;0.82;;;22.30;30.30;;;;;;5034719;28;20408;-52
2023/04/24 11:49:26;;;;;;;2.03;1.00;;;22.50;28.80;;;;;;5034468;28;20233;-51
2023/04/24 11:51:55;;;;;;;2.13;0.60;;;22.70;27.50;;;;;;5034658;28;20247;-52
2023/04/24 11:54:21;;;;;;;2.43;1.07;;;22.60;27.30;;;;;;5034711;28;20188;-51
2023/04/24 11:56:50;;;;;;;2.30;1.00;;;22.40;28.10;;;;;;5034343;28;20448;-51
2023/04/24 11:59:15;;;;;;;1.50;0.88;;;22.20;27.90;;;;;;5034460;28;20436;-51
2023/04/24 12:01:48;;;;;;;2.60;1.33;;;22.10;28.80;;;;;;5034696;28;20529;-52
2023/04/24 12:04:17;;;;;;;2.75;1.35;;;22.10;28.80;;;;;;5034660;28;20196;-51
2023/04/24 12:07:02;;;;;;;2.50;1.10;;;22.00;29.30;;;;;;5034334;28;20268;-51
2023/04/24 12:09:28;;;;;;;1.57;0.97;;;21.90;29.60;;;;;;5034161;28;20420;-51
2023/04/24 12:11:56;;;;;;;1.90;1.07;;;21.60;29.20;;;;;;5034282;28;20416;-51
2023/04/24 12:14:23;;;;;;;2.50;1.95;;;21.30;29.20;;;;;;5034029;28;20428;-51
2023/04/24 12:16:50;;;;;;;1.50;1.05;;;21.00;29.80;;;;;;5034328;28;20205;-51
2023/04/24 12:19:22;;;;;;;1.88;1.20;;;20.80;29.30;;;;;;5034164;28;20196;-51
2023/04/24 12:22:05;;;;;;;2.15;1.55;;;20.70;29.30;;;;;;5033914;28;20534;-51
2023/04/24 12:24:32;;;;;;;1.70;1.00;;;20.70;29.80;;;;;;5034089;28;20154;-51
2023/04/24 12:26:58;;;;;;;2.80;1.85;;;20.80;29.70;;;;;;5034126;28;20185;-51
2023/04/24 12:29:25;;;;;;;3.67;1.38;;;21.00;30.10;;;;;;5033924;28;20186;-51
2023/04/24 12:31:51;;;;;;;1.83;1.30;;;21.00;27.80;;;;;;5033620;28;20551;-51
2023/04/24 12:34:20;;;;;;;2.17;1.15;;;21.00;28.30;;;;;;5033921;28;20447;-51
2023/04/24 12:36:46;;;;;;;3.15;1.70;;;20.90;27.40;;;;;;5033573;28;20570;-51
2023/04/24 12:39:19;;;;;;;2.40;1.25;;;21.00;28.40;;;;;;5033750;28;20316;-51
2023/04/24 12:41:57;;;;;;;3.33;1.57;;;21.20;27.90;;;;;;5033783;28;20185;-52
2023/04/24 12:44:34;;;;;;;2.00;1.08;;;21.40;26.80;;;;;;5033698;28;20750;-51
2023/04/24 12:47:01;;;;;;;2.80;1.63;;;21.50;26.80;;;;;;5033607;28;20181;-51